createdAt,value
2018-05-15T00:01:50.072Z,6.60
2018-05-15T00:04:17.743Z,6.57
2018-05-15T00:06:45.433Z,6.50
2018-05-15T00:09:12.391Z,6.47
2018-05-15T00:11:39.256Z,6.47
2018-05-15T00:14:06.112Z,6.53
2018-05-15T00:16:33.046Z,6.27
2018-05-15T00:18:59.965Z,7.60
2018-05-15T00:21:26.844Z,6.67
2018-05-15T00:23:53.779Z,6.20
2018-05-15T00:26:20.655Z,7.70
2018-05-15T00:28:48.257Z,7.33
2018-05-15T00:31:15.187Z,7.30
2018-05-15T00:33:42.053Z,6.90
2018-05-15T00:36:08.986Z,7.30
2018-05-15T00:38:35.911Z,7.57
2018-05-15T00:41:02.847Z,6.73
2018-05-15T00:43:29.708Z,7.27
2018-05-15T00:45:56.640Z,6.63
2018-05-15T00:48:23.567Z,6.43
2018-05-15T00:50:50.446Z,7.63
2018-05-15T00:53:17.367Z,7.53
2018-05-15T00:55:44.393Z,6.77
2018-05-15T00:58:11.333Z,7.30
2018-05-15T01:00:38.294Z,7.47
2018-05-15T01:03:05.162Z,7.57
2018-05-15T01:05:32.846Z,6.77
2018-05-15T01:08:00.470Z,7.40
2018-05-15T01:10:27.337Z,7.60
2018-05-15T01:12:54.501Z,7.43
2018-05-15T01:15:22.130Z,7.53
2018-05-15T01:17:49.074Z,7.20
2018-05-15T01:20:16.026Z,7.47
2018-05-15T01:22:42.972Z,6.87
2018-05-15T01:25:09.845Z,8.20
2018-05-15T01:27:38.256Z,7.73
2018-05-15T01:30:06.673Z,7.73
2018-05-15T01:32:34.886Z,7.40
2018-05-15T01:35:02.690Z,7.57
2018-05-15T01:37:30.433Z,8.27
2018-05-15T01:39:58.212Z,7.33
2018-05-15T01:42:25.090Z,7.87
2018-05-15T01:44:51.958Z,7.67
2018-05-15T01:47:18.954Z,8.47
2018-05-15T01:49:45.825Z,7.87
2018-05-15T01:52:12.773Z,9.03
2018-05-15T01:54:39.727Z,7.77
2018-05-15T01:57:06.690Z,7.80
2018-05-15T01:59:33.564Z,8.17
2018-05-15T02:02:00.429Z,7.80
2018-05-15T02:04:27.366Z,7.90
2018-05-15T02:06:54.233Z,7.13
2018-05-15T02:09:21.173Z,7.77
2018-05-15T02:11:48.101Z,7.60
2018-05-15T02:14:15.042Z,8.10
2018-05-15T02:16:42.054Z,8.30
2018-05-15T02:19:08.921Z,8.10
2018-05-15T02:21:35.849Z,7.90
2018-05-15T02:24:02.800Z,8.13
2018-05-15T02:26:30.399Z,8.13
2018-05-15T02:28:57.344Z,8.37
2018-05-15T02:31:24.218Z,8.10
2018-05-15T02:33:51.094Z,7.20
2018-05-15T02:36:18.035Z,8.20
2018-05-15T02:38:45.648Z,7.93
2018-05-15T02:41:12.649Z,7.63
2018-05-15T02:43:39.507Z,7.50
2018-05-15T02:46:06.471Z,8.17
2018-05-15T02:48:33.344Z,7.53
2018-05-15T02:51:00.282Z,7.10
2018-05-15T02:53:27.147Z,8.63
2018-05-15T02:55:54.091Z,7.77
2018-05-15T02:58:20.972Z,6.40
2018-05-15T03:00:48.592Z,7.27
2018-05-15T03:03:15.530Z,7.37
2018-05-15T03:05:42.404Z,8.33
2018-05-15T03:08:09.280Z,7.60
2018-05-15T03:10:36.212Z,8.17
2018-05-15T03:13:03.838Z,7.83
2018-05-15T03:15:30.699Z,8.23
2018-05-15T03:17:57.716Z,8.70
2018-05-15T03:20:24.655Z,8.00
2018-05-15T03:22:51.538Z,7.77
2018-05-15T03:25:18.482Z,8.03
2018-05-15T03:27:45.413Z,8.00
2018-05-15T03:30:12.262Z,7.80
2018-05-15T03:32:39.194Z,7.90
2018-05-15T03:35:06.126Z,8.67
2018-05-15T03:37:32.990Z,8.60
2018-05-15T03:39:59.986Z,7.77
2018-05-15T03:42:26.845Z,7.67
2018-05-15T03:44:53.725Z,8.23
2018-05-15T03:47:20.653Z,8.87
2018-05-15T03:49:47.525Z,8.43
2018-05-15T03:52:14.445Z,8.60
2018-05-15T03:54:41.318Z,8.13
2018-05-15T03:57:08.250Z,9.57
2018-05-15T03:59:35.173Z,8.50
2018-05-15T04:02:14.147Z,8.60
2018-05-15T04:04:53.808Z,8.67
2018-05-15T04:07:45.253Z,7.93
2018-05-15T04:10:12.155Z,7.60
2018-05-15T04:12:39.114Z,7.77
2018-05-15T04:15:06.041Z,7.70
2018-05-15T04:17:33.010Z,7.80
2018-05-15T04:19:59.919Z,9.10
2018-05-15T04:22:26.930Z,8.60
2018-05-15T04:24:54.890Z,8.47
2018-05-15T04:27:26.581Z,8.73
2018-05-15T04:30:00.764Z,8.37
2018-05-15T04:32:31.637Z,8.90
2018-05-15T04:34:58.655Z,9.10
2018-05-15T04:37:25.548Z,8.83
2018-05-15T04:39:52.517Z,8.57
2018-05-15T04:42:19.381Z,9.80
2018-05-15T04:44:47.070Z,8.53
2018-05-15T04:47:13.929Z,8.97
2018-05-15T04:49:40.866Z,8.67
2018-05-15T04:52:07.801Z,9.43
2018-05-15T04:54:34.680Z,8.80
2018-05-15T04:57:01.626Z,8.53
2018-05-15T04:59:28.593Z,8.70
2018-05-15T05:01:55.581Z,9.27
2018-05-15T05:04:23.330Z,8.97
2018-05-15T05:06:50.266Z,8.70
2018-05-15T05:09:27.754Z,10.13
2018-05-15T05:11:56.456Z,9.80
2018-05-15T05:14:24.350Z,8.67
2018-05-15T05:16:52.977Z,9.60
2018-05-15T05:19:20.591Z,9.30
2018-05-15T05:21:48.698Z,9.00
2018-05-15T05:24:15.636Z,9.77
2018-05-15T05:26:42.508Z,10.40
2018-05-15T05:29:09.491Z,9.70
2018-05-15T05:31:37.358Z,8.90
2018-05-15T05:34:04.404Z,9.80
2018-05-15T05:36:31.324Z,9.20
2018-05-15T05:38:58.215Z,9.17
2018-05-15T05:41:25.173Z,9.50
2018-05-15T05:43:52.051Z,8.63
2018-05-15T05:46:18.966Z,8.73
2018-05-15T05:48:45.977Z,9.20
2018-05-15T05:51:12.837Z,9.57
2018-05-15T05:53:39.769Z,9.00
2018-05-15T05:56:06.640Z,8.70
2018-05-15T05:58:33.562Z,9.50
2018-05-15T06:01:00.434Z,9.30
2018-05-15T06:03:27.370Z,10.10
2018-05-15T06:05:54.269Z,10.03
2018-05-15T06:08:21.201Z,9.00
2018-05-15T06:10:48.130Z,9.73
2018-05-15T06:13:15.001Z,9.07
2018-05-15T06:15:41.955Z,9.63
2018-05-15T06:18:08.897Z,9.50
2018-05-15T06:20:35.879Z,9.40
2018-05-15T06:23:02.914Z,9.20
2018-05-15T06:25:29.787Z,9.60
2018-05-15T06:27:56.726Z,9.00
2018-05-15T06:30:23.607Z,9.70
2018-05-15T06:32:50.566Z,10.40
2018-05-15T06:35:17.523Z,9.70
2018-05-15T06:37:44.401Z,10.90
2018-05-15T06:40:11.384Z,10.67
2018-05-15T06:42:38.286Z,9.40
2018-05-15T06:45:05.906Z,10.87
2018-05-15T06:47:33.829Z,9.67
2018-05-15T06:50:00.703Z,10.90
2018-05-15T06:52:27.650Z,10.47
2018-05-15T06:54:54.555Z,10.63
2018-05-15T06:57:21.488Z,11.47
2018-05-15T06:59:48.358Z,10.47
2018-05-15T07:02:15.310Z,10.20
2018-05-15T07:04:42.205Z,9.20
2018-05-15T07:07:09.082Z,11.30
2018-05-15T07:09:36.759Z,10.03
2018-05-15T07:12:03.680Z,11.00
2018-05-15T07:14:30.646Z,10.00
2018-05-15T07:16:58.182Z,9.87
2018-05-15T07:19:25.401Z,9.87
2018-05-15T07:21:52.708Z,9.20
2018-05-15T07:24:19.817Z,8.83
2018-05-15T07:26:46.679Z,9.40
2018-05-15T07:29:13.550Z,9.97
2018-05-15T07:31:40.485Z,10.30
2018-05-15T07:34:08.080Z,8.90
2018-05-15T07:36:35.024Z,10.13
2018-05-15T07:39:01.957Z,9.77
2018-05-15T07:41:28.843Z,9.37
2018-05-15T07:43:55.793Z,9.03
2018-05-15T07:46:22.658Z,9.53
2018-05-15T07:48:49.678Z,8.60
2018-05-15T07:51:16.574Z,10.37
2018-05-15T07:53:44.196Z,10.40
2018-05-15T07:56:11.122Z,10.57
2018-05-15T07:58:37.996Z,9.67
2018-05-15T08:01:04.941Z,9.40
2018-05-15T08:03:31.802Z,8.97
2018-05-15T08:05:58.725Z,9.07
2018-05-15T08:08:25.652Z,9.23
2018-05-15T08:10:52.608Z,8.70
2018-05-15T08:13:19.586Z,9.17
2018-05-15T08:15:47.265Z,10.03
2018-05-15T08:18:14.879Z,8.90
2018-05-15T08:20:41.877Z,8.30
2018-05-15T08:23:08.855Z,9.57
2018-05-15T08:25:35.725Z,8.60
2018-05-15T08:28:02.653Z,9.30
2018-05-15T08:30:29.507Z,8.60
2018-05-15T08:32:57.433Z,8.50
2018-05-15T08:35:24.340Z,7.83
2018-05-15T08:37:51.333Z,8.07
2018-05-15T08:40:18.234Z,8.93
2018-05-15T08:42:45.166Z,8.23
2018-05-15T08:45:12.038Z,8.90
2018-05-15T08:47:38.965Z,8.73
2018-05-15T08:50:05.889Z,8.03
2018-05-15T08:52:32.930Z,7.67
2018-05-15T08:54:59.774Z,8.43
2018-05-15T08:57:26.650Z,8.07
2018-05-15T08:59:53.565Z,8.40
2018-05-15T09:02:20.434Z,8.27
2018-05-15T09:04:47.353Z,8.60
2018-05-15T09:07:14.211Z,8.00
2018-05-15T09:09:41.063Z,7.87
2018-05-15T09:12:07.984Z,7.60
2018-05-15T09:14:34.833Z,8.10
2018-05-15T09:17:01.769Z,7.67
2018-05-15T09:19:28.612Z,7.60
2018-05-15T09:21:55.531Z,7.87
2018-05-15T09:24:22.478Z,7.23
2018-05-15T09:26:49.403Z,6.67
2018-05-15T09:29:16.296Z,6.93
2018-05-15T09:31:43.247Z,8.20
2018-05-15T09:34:10.101Z,7.80
2018-05-15T09:36:37.049Z,11.67
2018-05-15T09:39:04.985Z,7.37
2018-05-15T09:41:31.887Z,7.30
2018-05-15T09:43:58.888Z,7.77
2018-05-15T09:46:25.747Z,7.53
2018-05-15T09:48:52.722Z,6.83
2018-05-15T09:51:19.615Z,5.63
2018-05-15T09:53:46.560Z,4.73
2018-05-15T09:56:13.442Z,5.20
2018-05-15T09:58:40.380Z,5.13
2018-05-15T10:01:07.302Z,5.47
2018-05-15T10:03:34.246Z,5.20
2018-05-15T10:06:01.157Z,5.10
2018-05-15T10:08:28.032Z,5.00
2018-05-15T10:10:54.954Z,5.13
2018-05-15T10:13:21.817Z,4.93
2018-05-15T10:15:49.488Z,4.50
2018-05-15T10:18:16.353Z,5.30
2018-05-15T10:20:43.295Z,5.20
2018-05-15T10:23:10.187Z,5.37
2018-05-15T10:25:37.180Z,5.30
2018-05-15T10:28:04.150Z,5.40
2018-05-15T10:30:31.106Z,5.93
2018-05-15T10:32:57.963Z,6.37
2018-05-15T10:35:24.909Z,4.60
2018-05-15T10:37:51.873Z,4.87
2018-05-15T10:40:18.804Z,6.27
2018-05-15T10:42:45.754Z,4.90
2018-05-15T10:45:12.656Z,5.07
2018-05-15T10:47:39.527Z,5.10
2018-05-15T10:50:06.521Z,5.60
2018-05-15T10:52:33.441Z,6.03
2018-05-15T10:55:00.333Z,4.90
2018-05-15T10:57:28.297Z,5.50
2018-05-15T10:59:55.237Z,5.57
2018-05-15T11:02:22.173Z,5.60
2018-05-15T11:04:49.862Z,6.27
2018-05-15T11:07:19.431Z,5.50
2018-05-15T11:09:48.288Z,5.90
2018-05-15T11:12:15.385Z,6.37
2018-05-15T11:14:43.073Z,6.30
2018-05-15T11:17:09.930Z,5.33
2018-05-15T11:19:49.361Z,6.00
2018-05-15T11:22:29.181Z,11.50
2018-05-15T11:24:56.081Z,8.60
2018-05-15T11:27:23.665Z,10.37
2018-05-15T11:29:50.553Z,6.00
2018-05-15T11:32:17.500Z,10.60
2018-05-15T11:34:44.428Z,9.03
2018-05-15T11:37:15.671Z,27.97
2018-05-15T11:39:42.580Z,9.60
2018-05-15T11:42:10.419Z,7.43
2018-05-15T11:44:38.406Z,7.13
2018-05-15T11:47:17.318Z,10.90
2018-05-15T11:49:45.500Z,7.00
2018-05-15T11:52:12.546Z,6.70
2018-05-15T11:54:39.476Z,6.60
2018-05-15T11:57:06.424Z,6.73
2018-05-15T11:59:35.643Z,6.60
2018-05-15T12:02:04.589Z,6.93
2018-05-15T12:04:32.351Z,7.07
2018-05-15T12:07:08.643Z,6.30
2018-05-15T12:09:36.057Z,5.87
2018-05-15T12:12:03.013Z,7.50
2018-05-15T12:14:30.687Z,7.70
2018-05-15T12:16:58.211Z,7.90
2018-05-15T12:19:25.145Z,8.60
2018-05-15T12:21:52.152Z,8.13
2018-05-15T12:24:20.551Z,7.07
2018-05-15T12:26:47.788Z,7.47
2018-05-15T12:29:14.685Z,7.40
2018-05-15T12:31:42.434Z,7.50
2018-05-15T12:34:09.746Z,6.93
2018-05-15T12:36:37.559Z,6.70
2018-05-15T12:39:05.475Z,7.73
2018-05-15T12:41:35.992Z,8.20
2018-05-15T12:44:06.681Z,7.03
2018-05-15T12:46:35.014Z,7.70
2018-05-15T12:49:02.738Z,7.47
2018-05-15T12:51:29.699Z,7.80
2018-05-15T12:53:56.597Z,7.07
2018-05-15T12:56:23.562Z,7.53
2018-05-15T12:58:50.619Z,7.73
2018-05-15T13:01:17.487Z,6.30
2018-05-15T13:03:44.367Z,6.53
2018-05-15T13:06:11.301Z,7.20
2018-05-15T13:08:38.945Z,6.17
2018-05-15T13:11:05.921Z,7.03
2018-05-15T13:13:32.867Z,6.80
2018-05-15T13:15:59.811Z,6.60
2018-05-15T13:18:26.858Z,7.13
2018-05-15T13:20:53.856Z,7.17
2018-05-15T13:23:20.747Z,6.97
2018-05-15T13:25:47.720Z,6.93
2018-05-15T13:28:14.648Z,7.00
2018-05-15T13:30:41.585Z,6.80
2018-05-15T13:33:09.186Z,7.00
2018-05-15T13:35:36.148Z,7.27
2018-05-15T13:38:03.024Z,7.37
2018-05-15T13:40:30.641Z,6.90
2018-05-15T13:42:57.589Z,7.87
2018-05-15T13:45:24.515Z,7.83
2018-05-15T13:47:51.495Z,7.70
2018-05-15T13:50:18.485Z,7.43
2018-05-15T13:52:45.396Z,7.77
2018-05-15T13:55:12.309Z,7.30
2018-05-15T13:57:39.258Z,8.87
2018-05-15T14:00:06.141Z,8.40
2018-05-15T14:02:40.934Z,8.47
2018-05-15T14:05:08.719Z,8.20
2018-05-15T14:07:35.630Z,7.40
2018-05-15T14:10:02.577Z,8.00
2018-05-15T14:12:29.633Z,8.20
2018-05-15T14:14:57.468Z,8.10
2018-05-15T14:17:24.444Z,8.40
2018-05-15T14:19:51.370Z,7.50
2018-05-15T14:22:18.817Z,8.23
2018-05-15T14:24:49.683Z,8.07
2018-05-15T14:27:16.967Z,7.27
2018-05-15T14:29:43.823Z,6.83
2018-05-15T14:32:15.635Z,7.43
2018-05-15T14:34:42.520Z,7.40
2018-05-15T14:37:09.491Z,8.00
2018-05-15T14:39:36.852Z,7.73
2018-05-15T14:42:17.652Z,7.30
2018-05-15T14:44:44.582Z,7.67
2018-05-15T14:47:11.637Z,7.23
2018-05-15T14:49:42.423Z,8.00
2018-05-15T14:52:10.888Z,7.47
2018-05-15T14:54:38.925Z,7.43
2018-05-15T14:57:14.102Z,7.33
2018-05-15T14:59:42.733Z,7.50
2018-05-15T15:02:12.662Z,7.57
2018-05-15T15:04:41.959Z,7.57
2018-05-15T15:07:09.598Z,7.73
2018-05-15T15:09:36.553Z,7.17
2018-05-15T15:12:03.718Z,7.13
2018-05-15T15:14:31.395Z,8.10
2018-05-15T15:16:59.917Z,8.30
2018-05-15T15:19:28.251Z,7.00
2018-05-15T15:21:55.922Z,7.23
2018-05-15T15:24:22.790Z,7.00
2018-05-15T15:30:04.037Z,7.30
2018-05-15T15:44:13.822Z,7.83
2018-05-15T15:47:07.868Z,6.87
2018-05-15T15:58:43.067Z,7.30
2018-05-15T16:04:02.113Z,8.07
2018-05-15T16:06:29.054Z,8.30
2018-05-15T16:08:55.973Z,8.67
2018-05-15T16:11:22.894Z,9.40
2018-05-15T16:13:49.821Z,9.00
2018-05-15T16:16:17.557Z,9.30
2018-05-15T16:18:44.413Z,9.50
2018-05-15T16:21:11.270Z,8.80
2018-05-15T16:23:38.228Z,8.67
2018-05-15T16:26:05.853Z,9.10
2018-05-15T16:28:32.868Z,8.70
2018-05-15T16:31:00.717Z,8.70
2018-05-15T16:33:30.118Z,7.20
2018-05-15T16:35:57.790Z,8.20
2018-05-15T16:38:28.096Z,7.83
2018-05-15T16:40:57.893Z,9.40
2018-05-15T16:43:24.850Z,8.13
2018-05-15T16:45:52.661Z,8.63
2018-05-15T16:48:19.619Z,8.17
2018-05-15T16:50:47.791Z,9.10
2018-05-15T16:53:14.670Z,9.10
2018-05-15T16:55:41.629Z,9.17
2018-05-15T16:58:09.950Z,8.27
2018-05-15T17:00:37.555Z,9.30
2018-05-15T17:03:04.502Z,9.13
2018-05-15T17:05:31.892Z,8.70
2018-05-15T17:07:59.549Z,8.23
2018-05-15T17:10:26.439Z,8.70
2018-05-15T17:12:56.077Z,9.33
2018-05-15T17:15:22.958Z,8.23
2018-05-15T17:17:50.101Z,8.97
2018-05-15T17:20:19.734Z,9.20
2018-05-15T17:22:47.508Z,9.00
2018-05-15T17:25:15.712Z,8.60
2018-05-15T17:27:42.566Z,9.87
2018-05-15T17:30:11.426Z,8.83
2018-05-15T17:32:40.465Z,8.30
2018-05-15T17:35:14.177Z,8.67
2018-05-15T17:37:41.349Z,8.37
2018-05-15T17:40:09.842Z,8.80
2018-05-15T17:42:37.559Z,10.23
2018-05-15T17:45:04.573Z,8.57
2018-05-15T17:47:32.827Z,9.67
2018-05-15T17:50:02.658Z,8.93
2018-05-15T17:52:29.520Z,9.90
2018-05-15T17:54:56.548Z,8.90
2018-05-15T17:57:24.328Z,9.00
2018-05-15T17:59:51.345Z,7.53
2018-05-15T18:02:18.186Z,6.20
2018-05-15T18:04:45.151Z,6.50
2018-05-15T18:07:12.019Z,6.33
2018-05-15T18:09:38.927Z,5.53
2018-05-15T18:12:05.913Z,5.77
2018-05-15T18:14:43.266Z,5.23
2018-05-15T18:17:19.722Z,6.27
2018-05-15T18:19:46.669Z,4.90
2018-05-15T18:25:24.956Z,5.60
2018-05-15T18:32:14.110Z,5.60
2018-05-15T18:38:04.592Z,5.10
2018-05-15T18:43:56.239Z,4.93
2018-05-15T18:46:40.169Z,5.07
2018-05-15T18:55:12.696Z,5.80
2018-05-15T19:06:28.008Z,5.60
2018-05-15T19:12:06.867Z,5.33
2018-05-15T19:17:30.764Z,5.13
2018-05-15T19:20:00.106Z,5.87
2018-05-15T19:22:30.261Z,5.23
2018-05-15T19:24:57.942Z,5.70
2018-05-15T19:27:24.889Z,6.00
2018-05-15T19:29:53.660Z,6.77
2018-05-15T19:32:35.605Z,6.33
2018-05-15T19:35:07.574Z,5.97
2018-05-15T19:37:35.430Z,6.40
2018-05-15T19:40:09.013Z,6.20
2018-05-15T19:42:48.486Z,5.57
2018-05-15T19:45:17.304Z,6.20
2018-05-15T19:47:45.061Z,6.57
2018-05-15T19:50:11.966Z,7.10
2018-05-15T19:52:39.021Z,7.00
2018-05-15T19:55:05.946Z,7.80
2018-05-15T19:57:44.041Z,6.80
2018-05-15T20:00:11.903Z,6.20
2018-05-15T20:02:38.839Z,6.27
2018-05-15T20:05:09.178Z,6.30
2018-05-15T20:07:38.104Z,6.50
2018-05-15T20:10:05.265Z,5.10
2018-05-15T20:12:32.738Z,5.80
2018-05-15T20:15:02.805Z,6.73
2018-05-15T20:17:31.017Z,6.40
2018-05-15T20:20:03.552Z,6.00
2018-05-15T20:22:33.905Z,6.47
2018-05-15T20:25:04.386Z,6.27
2018-05-15T20:27:32.070Z,7.23
2018-05-15T20:30:00.130Z,6.37
2018-05-15T20:32:27.842Z,6.73
2018-05-15T20:34:54.968Z,6.97
2018-05-15T20:37:23.093Z,6.00
2018-05-15T20:39:50.306Z,15.40
2018-05-15T20:42:27.634Z,8.57
2018-05-15T20:44:55.360Z,9.30
2018-05-15T20:47:23.023Z,8.20
2018-05-15T20:49:49.862Z,9.50
2018-05-15T20:52:16.926Z,9.70
2018-05-15T20:54:44.315Z,9.23
2018-05-15T20:57:11.374Z,8.77
2018-05-15T20:59:38.244Z,8.73
2018-05-15T21:02:05.145Z,9.00
2018-05-15T21:04:32.113Z,7.57
2018-05-15T21:06:59.143Z,9.00
2018-05-15T21:09:26.004Z,7.37
2018-05-15T21:11:52.933Z,7.87
2018-05-15T21:14:31.469Z,7.90
2018-05-15T21:17:10.755Z,7.20
2018-05-15T21:19:47.865Z,7.83
2018-05-15T21:22:26.233Z,8.03
2018-05-15T21:24:53.973Z,7.70
2018-05-15T21:27:27.375Z,6.30
2018-05-15T21:29:55.059Z,7.60
2018-05-15T21:32:32.947Z,7.63
2018-05-15T21:35:00.605Z,8.87
2018-05-15T21:37:38.079Z,9.10
2018-05-15T21:40:10.300Z,8.73
2018-05-15T21:42:49.067Z,8.80
2018-05-15T21:45:27.512Z,13.67
2018-05-15T21:48:06.037Z,14.87
2018-05-15T21:50:45.603Z,13.40
2018-05-15T21:53:24.103Z,11.77
2018-05-15T21:55:59.555Z,9.90
2018-05-15T21:58:41.047Z,10.67
2018-05-15T22:01:13.025Z,10.33
2018-05-15T22:03:40.004Z,10.20
2018-05-15T22:06:06.949Z,11.30
2018-05-15T22:08:34.800Z,9.23
2018-05-15T22:11:13.510Z,19.07
2018-05-15T22:13:54.450Z,14.60
2018-05-15T22:16:34.155Z,11.53
2018-05-15T22:19:13.242Z,12.70
2018-05-15T22:21:52.306Z,12.03
2018-05-15T22:24:28.287Z,12.03
2018-05-15T22:26:55.164Z,12.27
2018-05-15T22:29:23.133Z,11.07
2018-05-15T22:31:50.118Z,12.13
2018-05-15T22:34:17.080Z,12.60
2018-05-15T22:36:43.958Z,12.47
2018-05-15T22:39:11.698Z,12.93
2018-05-15T22:41:38.642Z,10.27
2018-05-15T22:46:44.748Z,10.63
2018-05-15T22:49:17.982Z,10.20
2018-05-15T22:51:44.830Z,10.07
2018-05-15T22:54:11.701Z,10.40
2018-05-15T22:56:39.554Z,11.27
2018-05-15T22:59:06.410Z,10.80
2018-05-15T23:01:33.269Z,9.90
2018-05-15T23:04:00.958Z,10.63
2018-05-15T23:06:27.830Z,11.27
2018-05-15T23:08:54.782Z,11.00
2018-05-15T23:11:21.688Z,12.20
2018-05-15T23:13:49.314Z,11.80
2018-05-15T23:16:16.257Z,11.43
2018-05-15T23:18:43.209Z,11.83
2018-05-15T23:21:10.054Z,11.50
2018-05-15T23:23:37.036Z,9.20
2018-05-15T23:26:03.912Z,10.00
2018-05-15T23:28:31.633Z,12.30
2018-05-15T23:30:58.640Z,11.40
2018-05-15T23:33:25.596Z,11.87
2018-05-15T23:35:52.541Z,12.30
2018-05-15T23:38:19.592Z,12.87
2018-05-15T23:40:46.566Z,12.30
2018-05-15T23:43:13.481Z,12.27
2018-05-15T23:45:40.447Z,11.40
2018-05-15T23:48:07.369Z,12.53
2018-05-15T23:50:34.240Z,12.23
2018-05-15T23:53:01.172Z,11.10
2018-05-15T23:55:28.052Z,12.60
2018-05-15T23:57:55.061Z,11.50
